createdAt,value
2022-07-29T00:00:00.730Z,57.23
2022-07-29T00:02:29.287Z,58.56
2022-07-29T00:04:57.039Z,64.99
2022-07-29T00:07:24.965Z,68.77
2022-07-29T00:09:52.877Z,60.00
2022-07-29T00:12:26.043Z,53.98
2022-07-29T00:14:55.717Z,54.21
2022-07-29T00:17:26.977Z,55.79
2022-07-29T00:19:54.624Z,57.04
2022-07-29T00:22:22.324Z,58.33
2022-07-29T00:24:50.280Z,64.07
2022-07-29T00:27:19.108Z,68.87
2022-07-29T00:29:46.789Z,63.95
2022-07-29T00:32:14.429Z,56.09
2022-07-29T00:35:00.649Z,51.48
2022-07-29T00:37:28.317Z,51.92
2022-07-29T00:39:56.001Z,54.20
2022-07-29T00:42:23.777Z,56.18
2022-07-29T00:44:51.514Z,57.69
2022-07-29T00:47:19.190Z,63.43
2022-07-29T00:49:46.959Z,68.03
2022-07-29T00:52:17.093Z,59.17
2022-07-29T00:54:45.194Z,53.23
2022-07-29T00:57:13.879Z,54.42
2022-07-29T00:59:41.761Z,55.95
2022-07-29T01:02:09.542Z,57.30
2022-07-29T01:04:37.309Z,58.65
2022-07-29T01:07:05.662Z,64.84
2022-07-29T01:09:45.281Z,68.72
2022-07-29T01:12:18.319Z,59.96
2022-07-29T01:14:47.355Z,53.92
2022-07-29T01:17:26.785Z,54.69
2022-07-29T01:20:02.440Z,55.54
2022-07-29T01:22:41.938Z,57.19
2022-07-29T01:25:45.297Z,64.07
2022-07-29T01:28:31.650Z,70.74
2022-07-29T01:31:03.609Z,71.69
2022-07-29T01:33:51.740Z,54.75
2022-07-29T01:36:36.041Z,48.97
2022-07-29T01:39:09.159Z,50.31
2022-07-29T01:41:40.084Z,53.07
2022-07-29T01:44:22.944Z,54.72
2022-07-29T01:46:55.179Z,56.02
2022-07-29T01:49:28.237Z,62.99
2022-07-29T01:52:00.619Z,67.65
2022-07-29T01:54:43.991Z,58.17
2022-07-29T01:57:18.393Z,52.44
2022-07-29T01:59:48.283Z,53.98
2022-07-29T02:02:18.710Z,55.86
2022-07-29T02:04:49.558Z,57.26
2022-07-29T02:07:21.183Z,63.26
2022-07-29T02:09:51.212Z,68.03
2022-07-29T02:12:19.619Z,59.55
2022-07-29T02:14:51.342Z,53.89
2022-07-29T02:17:25.859Z,53.84
2022-07-29T02:19:57.324Z,55.36
2022-07-29T02:22:26.501Z,57.10
2022-07-29T02:24:54.725Z,63.67
2022-07-29T02:27:24.627Z,68.11
2022-07-29T02:29:53.573Z,59.80
2022-07-29T02:32:23.672Z,53.46
2022-07-29T02:34:53.349Z,54.04
2022-07-29T02:37:22.071Z,55.46
2022-07-29T02:39:52.989Z,57.19
2022-07-29T02:42:22.718Z,64.24
2022-07-29T02:44:51.420Z,67.70
2022-07-29T02:47:41.378Z,58.82
2022-07-29T02:50:25.664Z,52.52
2022-07-29T02:52:56.563Z,53.34
2022-07-29T02:55:31.025Z,55.58
2022-07-29T02:58:13.840Z,56.77
2022-07-29T03:00:42.541Z,57.87
2022-07-29T03:03:16.043Z,64.86
2022-07-29T03:05:43.790Z,69.86
2022-07-29T03:08:12.833Z,66.04
2022-07-29T03:10:43.925Z,56.07
2022-07-29T03:13:13.449Z,51.01
2022-07-29T03:15:44.697Z,52.07
2022-07-29T03:18:12.918Z,53.68
2022-07-29T03:20:41.540Z,55.49
2022-07-29T03:23:09.752Z,56.97
2022-07-29T03:25:37.538Z,58.38
2022-07-29T03:28:05.454Z,64.46
2022-07-29T03:30:33.138Z,68.53
2022-07-29T03:33:00.823Z,60.25
2022-07-29T03:35:32.572Z,53.92
2022-07-29T03:38:00.680Z,54.56
2022-07-29T03:41:04.599Z,56.14
2022-07-29T03:43:34.380Z,56.59
2022-07-29T03:46:04.753Z,63.97
2022-07-29T03:48:34.278Z,68.42
2022-07-29T03:51:02.171Z,60.26
2022-07-29T03:53:29.972Z,53.99
2022-07-29T03:56:00.623Z,54.41
2022-07-29T03:58:28.924Z,55.76
2022-07-29T04:00:56.997Z,57.35
2022-07-29T04:03:24.837Z,63.67
2022-07-29T04:06:18.725Z,68.38
2022-07-29T04:08:46.358Z,66.46
2022-07-29T04:11:14.225Z,54.67
2022-07-29T04:13:41.851Z,50.14
2022-07-29T04:16:10.046Z,51.81
2022-07-29T04:18:37.763Z,54.17
2022-07-29T04:21:05.365Z,56.48
2022-07-29T04:23:36.148Z,63.01
2022-07-29T04:26:21.570Z,68.26
2022-07-29T04:28:49.243Z,59.40
2022-07-29T04:31:17.175Z,54.03
2022-07-29T04:33:46.284Z,55.20
2022-07-29T04:36:28.685Z,57.52
2022-07-29T04:38:57.661Z,64.39
2022-07-29T04:41:30.859Z,67.24
2022-07-29T04:44:06.827Z,59.19
2022-07-29T04:46:35.891Z,53.97
2022-07-29T04:49:04.518Z,55.13
2022-07-29T04:51:32.298Z,57.00
2022-07-29T04:53:59.943Z,62.88
2022-07-29T04:56:28.618Z,67.33
2022-07-29T04:58:56.287Z,59.85
2022-07-29T05:01:24.117Z,54.96
2022-07-29T05:03:53.939Z,55.42
2022-07-29T05:06:23.551Z,56.81
2022-07-29T05:08:51.251Z,63.95
2022-07-29T05:11:21.851Z,67.02
2022-07-29T05:13:51.019Z,59.02
2022-07-29T05:16:18.694Z,54.15
2022-07-29T05:18:46.388Z,54.79
2022-07-29T05:21:14.045Z,56.61
2022-07-29T05:23:41.669Z,63.06
2022-07-29T05:26:09.300Z,66.90
2022-07-29T05:28:36.944Z,58.44
2022-07-29T05:31:04.710Z,53.68
2022-07-29T05:33:35.064Z,54.27
2022-07-29T05:36:08.527Z,56.23
2022-07-29T05:38:37.025Z,62.70
2022-07-29T05:41:06.255Z,66.50
2022-07-29T05:43:34.059Z,57.69
2022-07-29T05:46:01.812Z,52.73
2022-07-29T05:48:29.559Z,53.38
2022-07-29T05:50:57.214Z,55.26
2022-07-29T05:53:24.905Z,56.13
2022-07-29T05:55:53.227Z,62.51
2022-07-29T05:58:21.407Z,66.39
2022-07-29T06:00:49.096Z,57.17
2022-07-29T06:03:16.865Z,51.99
2022-07-29T06:05:44.581Z,52.72
2022-07-29T06:08:12.306Z,54.36
2022-07-29T06:10:40.190Z,55.53
2022-07-29T06:13:07.890Z,57.52
2022-07-29T06:15:35.946Z,63.22
2022-07-29T06:18:03.671Z,65.64
2022-07-29T06:20:32.868Z,57.72
2022-07-29T06:23:01.762Z,52.43
2022-07-29T06:25:33.351Z,52.53
2022-07-29T06:28:01.162Z,53.31
2022-07-29T06:30:29.789Z,54.79
2022-07-29T06:32:57.682Z,55.56
2022-07-29T06:35:38.425Z,56.13
2022-07-29T06:38:31.361Z,55.93
2022-07-29T06:41:07.060Z,55.99
2022-07-29T06:43:51.854Z,56.37
2022-07-29T06:46:22.567Z,57.63
2022-07-29T06:48:52.544Z,64.10
2022-07-29T06:51:23.156Z,66.10
2022-07-29T06:53:58.140Z,56.84
2022-07-29T06:56:26.622Z,50.68
2022-07-29T06:58:54.256Z,51.13
2022-07-29T07:01:22.146Z,51.83
2022-07-29T07:03:50.277Z,52.52
2022-07-29T07:06:17.963Z,54.99
2022-07-29T07:08:45.572Z,54.94
2022-07-29T07:11:13.262Z,55.76
2022-07-29T07:13:40.884Z,55.24
2022-07-29T07:16:08.543Z,55.82
2022-07-29T07:18:36.422Z,56.66
2022-07-29T07:21:06.008Z,55.76
2022-07-29T07:23:33.705Z,56.13
2022-07-29T07:26:01.473Z,56.62
2022-07-29T07:28:29.130Z,57.27
2022-07-29T07:30:56.860Z,57.39
2022-07-29T07:33:24.577Z,57.46
2022-07-29T07:35:52.210Z,56.81
2022-07-29T07:38:19.815Z,57.38
2022-07-29T07:40:47.496Z,56.38
2022-07-29T07:43:15.140Z,57.15
2022-07-29T07:45:43.115Z,56.98
2022-07-29T07:48:11.274Z,57.11
2022-07-29T07:50:39.016Z,56.62
2022-07-29T07:53:06.952Z,55.58
2022-07-29T07:56:07.708Z,54.87
2022-07-29T07:58:23.369Z,56.74
2022-07-29T08:00:51.596Z,57.64
2022-07-29T08:03:19.819Z,56.54
2022-07-29T08:05:49.813Z,57.57
2022-07-29T08:08:18.675Z,56.17
2022-07-29T08:10:53.575Z,56.15
2022-07-29T08:13:22.619Z,54.79
2022-07-29T08:15:58.919Z,55.34
2022-07-29T08:18:29.383Z,54.46
2022-07-29T08:20:57.102Z,54.75
2022-07-29T08:23:25.246Z,54.17
2022-07-29T08:25:54.891Z,54.43
2022-07-29T08:28:25.791Z,54.97
2022-07-29T08:30:53.807Z,55.17
2022-07-29T08:33:21.680Z,54.65
2022-07-29T08:35:50.979Z,54.15
2022-07-29T08:38:18.688Z,53.35
2022-07-29T08:40:47.315Z,52.34
2022-07-29T08:43:15.325Z,53.27
2022-07-29T08:45:48.087Z,53.04
2022-07-29T08:48:21.092Z,53.07
2022-07-29T08:50:53.407Z,52.26
2022-07-29T08:53:22.709Z,52.11
2022-07-29T08:55:51.411Z,51.55
2022-07-29T08:58:23.106Z,50.42
2022-07-29T09:00:55.502Z,49.97
2022-07-29T09:03:31.518Z,48.09
2022-07-29T09:06:02.608Z,46.59
2022-07-29T09:08:32.812Z,46.20
2022-07-29T09:11:03.974Z,45.93
2022-07-29T09:13:33.047Z,44.31
2022-07-29T09:16:05.702Z,43.69
2022-07-29T09:18:41.644Z,41.95
2022-07-29T09:21:30.300Z,40.36
2022-07-29T09:24:09.631Z,39.78
2022-07-29T09:26:40.530Z,37.66
2022-07-29T09:29:14.462Z,35.27
2022-07-29T09:31:45.169Z,34.56
2022-07-29T09:34:15.544Z,31.44
2022-07-29T09:36:54.786Z,29.48
2022-07-29T09:39:46.691Z,28.49
2022-07-29T09:42:17.973Z,27.10
2022-07-29T09:44:51.329Z,25.71
2022-07-29T09:47:22.743Z,24.97
2022-07-29T09:49:59.238Z,24.55
2022-07-29T09:52:31.122Z,25.40
2022-07-29T09:55:09.555Z,25.04
2022-07-29T09:57:37.388Z,24.28
2022-07-29T10:00:07.812Z,23.76
2022-07-29T10:02:37.710Z,24.43
2022-07-29T10:05:08.070Z,25.02
2022-07-29T10:07:57.287Z,25.50
2022-07-29T10:10:30.518Z,26.58
2022-07-29T10:13:01.838Z,26.76
2022-07-29T10:15:41.722Z,26.38
2022-07-29T10:18:10.658Z,27.54
2022-07-29T10:20:39.175Z,27.89
2022-07-29T10:23:07.195Z,28.88
2022-07-29T10:25:34.901Z,29.10
2022-07-29T10:28:02.614Z,28.66
2022-07-29T10:30:30.559Z,29.70
2022-07-29T10:33:10.119Z,29.86
2022-07-29T10:36:05.637Z,28.64
2022-07-29T10:38:36.032Z,27.06
2022-07-29T10:41:43.827Z,25.75
2022-07-29T10:44:26.365Z,24.29
2022-07-29T10:46:54.534Z,22.72
2022-07-29T10:49:30.448Z,20.56
2022-07-29T10:52:03.549Z,19.22
2022-07-29T10:54:36.652Z,18.77
2022-07-29T10:57:53.611Z,17.81
2022-07-29T11:00:19.570Z,17.49
2022-07-29T11:02:52.270Z,16.80
2022-07-29T11:05:21.704Z,16.99
2022-07-29T11:08:19.908Z,17.10
2022-07-29T11:10:49.889Z,17.26
2022-07-29T11:13:48.817Z,17.03
2022-07-29T11:16:18.104Z,17.65
2022-07-29T11:19:30.564Z,17.73
2022-07-29T11:21:59.595Z,18.44
2022-07-29T11:24:35.812Z,18.48
2022-07-29T11:27:23.490Z,18.87
2022-07-29T11:29:58.715Z,19.66
2022-07-29T11:32:48.578Z,20.47
2022-07-29T11:35:38.371Z,21.27
2022-07-29T11:38:29.159Z,21.72
2022-07-29T11:41:18.591Z,22.74
2022-07-29T11:43:50.652Z,23.38
2022-07-29T11:46:50.849Z,23.90
2022-07-29T11:49:31.620Z,24.59
2022-07-29T11:52:04.841Z,24.94
2022-07-29T11:54:57.065Z,24.75
2022-07-29T11:57:36.086Z,23.84
2022-07-29T12:00:12.609Z,24.30
2022-07-29T12:02:48.529Z,24.42
2022-07-29T12:05:35.872Z,23.23
2022-07-29T12:08:19.553Z,22.03
2022-07-29T12:10:49.503Z,22.07
2022-07-29T12:13:19.374Z,21.59
2022-07-29T12:15:55.660Z,21.67
2022-07-29T12:18:27.987Z,21.88
2022-07-29T12:21:03.593Z,22.64
2022-07-29T12:23:36.876Z,22.55
2022-07-29T12:26:10.713Z,23.22
2022-07-29T12:28:39.793Z,24.29
2022-07-29T12:31:15.047Z,24.88
2022-07-29T12:34:02.775Z,25.02
2022-07-29T12:36:30.626Z,25.58
2022-07-29T12:38:58.310Z,25.23
2022-07-29T12:41:26.034Z,24.91
2022-07-29T12:43:55.451Z,24.85
2022-07-29T12:46:23.618Z,25.32
2022-07-29T12:48:57.571Z,26.29
2022-07-29T12:51:40.112Z,26.77
2022-07-29T12:54:11.684Z,27.15
2022-07-29T12:56:44.162Z,27.12
2022-07-29T12:59:22.868Z,26.49
2022-07-29T13:01:52.267Z,25.55
2022-07-29T13:04:34.100Z,25.20
2022-07-29T13:07:08.471Z,25.24
2022-07-29T13:09:46.623Z,25.48
2022-07-29T13:12:15.164Z,25.77
2022-07-29T13:14:44.517Z,25.08
2022-07-29T13:17:26.096Z,25.30
2022-07-29T13:20:10.299Z,25.62
2022-07-29T13:22:37.937Z,25.75
2022-07-29T13:25:08.981Z,25.78
2022-07-29T13:27:39.570Z,25.72
2022-07-29T13:30:09.422Z,25.31
2022-07-29T13:32:38.615Z,24.91
2022-07-29T13:35:09.024Z,25.09
2022-07-29T13:37:39.738Z,25.17
2022-07-29T13:40:09.133Z,25.42
2022-07-29T13:42:37.044Z,26.27
2022-07-29T13:45:06.039Z,26.18
2022-07-29T13:47:33.768Z,25.49
2022-07-29T13:50:02.312Z,24.99
2022-07-29T13:52:30.223Z,25.73
2022-07-29T13:54:58.094Z,25.86
2022-07-29T13:57:25.748Z,25.90
2022-07-29T13:59:54.468Z,25.99
2022-07-29T14:02:25.576Z,25.91
2022-07-29T14:04:55.301Z,25.55
2022-07-29T14:07:23.777Z,26.26
2022-07-29T14:09:51.714Z,26.71
2022-07-29T14:12:20.140Z,26.97
2022-07-29T14:14:47.833Z,26.93
2022-07-29T14:17:16.313Z,27.49
2022-07-29T14:19:44.184Z,27.16
2022-07-29T14:22:11.835Z,27.25
2022-07-29T14:24:39.930Z,26.58
2022-07-29T14:27:08.820Z,26.47
2022-07-29T14:29:38.284Z,26.73
2022-07-29T14:32:08.300Z,26.34
2022-07-29T14:34:47.294Z,26.19
2022-07-29T14:37:23.905Z,26.36
2022-07-29T14:39:51.733Z,26.00
2022-07-29T14:42:19.335Z,26.10
2022-07-29T14:44:48.850Z,26.19
2022-07-29T14:47:17.052Z,26.04
2022-07-29T14:49:44.692Z,26.17
2022-07-29T14:52:12.581Z,26.00
2022-07-29T14:54:40.296Z,26.62
2022-07-29T14:57:08.130Z,27.48
2022-07-29T14:59:35.940Z,26.87
2022-07-29T15:02:03.961Z,27.00
2022-07-29T15:04:31.957Z,27.11
2022-07-29T15:06:59.624Z,27.38
2022-07-29T15:09:27.264Z,27.47
2022-07-29T15:11:55.055Z,27.89
2022-07-29T15:14:22.751Z,28.00
2022-07-29T15:16:50.456Z,28.77
2022-07-29T15:19:21.009Z,29.04
2022-07-29T15:21:49.274Z,28.48
2022-07-29T15:24:18.089Z,28.66
2022-07-29T15:26:46.124Z,28.48
2022-07-29T15:29:14.550Z,28.39
2022-07-29T15:31:42.474Z,28.23
2022-07-29T15:34:10.389Z,29.02
2022-07-29T15:36:52.053Z,29.28
2022-07-29T15:39:21.909Z,29.20
2022-07-29T15:41:50.015Z,29.72
2022-07-29T15:44:18.409Z,30.07
2022-07-29T15:47:04.332Z,30.47
2022-07-29T15:49:47.828Z,30.55
2022-07-29T15:52:25.797Z,31.29
2022-07-29T16:34:34.338Z,33.40
2022-07-29T16:37:02.139Z,33.91
2022-07-29T16:39:29.966Z,34.04
2022-07-29T16:42:00.811Z,34.37
2022-07-29T16:44:30.086Z,34.13
2022-07-29T16:46:59.313Z,34.48
2022-07-29T16:49:28.262Z,34.56
2022-07-29T16:51:56.010Z,34.65
2022-07-29T16:54:23.707Z,35.15
2022-07-29T16:56:51.399Z,35.32
2022-07-29T16:59:19.079Z,35.40
2022-07-29T17:01:46.939Z,35.60
2022-07-29T17:04:15.134Z,35.80
2022-07-29T17:06:42.977Z,36.05
2022-07-29T17:09:14.897Z,36.59
2022-07-29T17:11:53.135Z,36.78
2022-07-29T17:14:25.075Z,37.22
2022-07-29T17:17:01.208Z,37.48
2022-07-29T17:19:32.075Z,38.17
2022-07-29T17:22:09.502Z,38.67
2022-07-29T17:24:41.067Z,39.10
2022-07-29T17:27:10.214Z,39.19
2022-07-29T17:29:39.034Z,39.67
2022-07-29T17:32:08.120Z,39.99
2022-07-29T17:34:40.114Z,40.16
2022-07-29T17:37:09.479Z,40.42
2022-07-29T17:39:40.679Z,40.60
2022-07-29T17:42:09.947Z,41.24
2022-07-29T17:44:38.721Z,41.21
2022-07-29T17:47:07.987Z,41.91
2022-07-29T17:49:45.501Z,41.43
2022-07-29T17:52:13.236Z,41.74
2022-07-29T17:54:40.993Z,41.98
2022-07-29T17:57:08.865Z,42.69
2022-07-29T17:59:36.831Z,42.85
2022-07-29T18:02:04.596Z,43.02
2022-07-29T18:04:32.260Z,43.17
2022-07-29T18:07:00.308Z,43.41
2022-07-29T18:09:28.463Z,43.59
2022-07-29T18:11:56.150Z,43.32
2022-07-29T18:14:24.211Z,42.97
2022-07-29T18:16:51.889Z,43.21
2022-07-29T18:19:19.600Z,43.50
2022-07-29T18:21:54.641Z,43.69
2022-07-29T18:24:25.709Z,43.71
2022-07-29T18:26:54.089Z,44.00
2022-07-29T18:29:22.195Z,43.94
2022-07-29T18:31:50.295Z,43.97
2022-07-29T18:34:18.140Z,44.15
2022-07-29T18:36:46.152Z,44.44
2022-07-29T18:39:20.821Z,44.43
2022-07-29T18:41:51.405Z,44.60
2022-07-29T18:44:22.120Z,44.99
2022-07-29T18:46:55.585Z,44.80
2022-07-29T18:49:23.444Z,44.77
2022-07-29T18:51:52.307Z,44.78
2022-07-29T18:54:19.961Z,44.94
2022-07-29T18:56:47.664Z,45.14
2022-07-29T18:59:17.193Z,45.36
2022-07-29T19:01:45.296Z,45.24
2022-07-29T19:04:13.189Z,45.32
2022-07-29T19:06:41.043Z,45.24
2022-07-29T19:09:09.227Z,45.26
2022-07-29T19:11:38.543Z,45.58
2022-07-29T19:14:07.327Z,45.72
2022-07-29T19:16:35.104Z,45.92
2022-07-29T19:19:03.138Z,46.26
2022-07-29T19:21:30.803Z,46.12
2022-07-29T19:24:01.402Z,46.34
2022-07-29T19:26:36.707Z,46.30
2022-07-29T19:29:05.596Z,46.62
2022-07-29T19:31:33.410Z,46.71
2022-07-29T19:34:01.183Z,46.95
2022-07-29T19:36:28.929Z,46.99
2022-07-29T19:38:56.684Z,47.02
2022-07-29T19:41:24.330Z,47.13
2022-07-29T19:43:53.213Z,47.36
2022-07-29T19:46:22.250Z,47.71
2022-07-29T19:48:50.735Z,47.59
2022-07-29T19:51:18.652Z,47.74
2022-07-29T19:53:46.387Z,47.96
2022-07-29T19:56:14.146Z,48.13
2022-07-29T19:58:44.203Z,48.19
2022-07-29T20:01:13.038Z,48.45
2022-07-29T20:03:40.798Z,48.50
2022-07-29T20:06:08.643Z,48.85
2022-07-29T20:08:37.026Z,49.18
2022-07-29T20:11:05.562Z,49.28
2022-07-29T20:13:35.239Z,49.19
2022-07-29T20:16:05.710Z,49.46
2022-07-29T20:18:33.848Z,49.63
2022-07-29T20:21:03.707Z,50.12
2022-07-29T20:23:33.265Z,50.44
2022-07-29T20:26:01.477Z,50.13
2022-07-29T20:28:29.214Z,50.05
2022-07-29T20:30:56.975Z,50.21
2022-07-29T20:33:24.622Z,50.38
2022-07-29T20:35:52.416Z,50.39
2022-07-29T20:38:20.144Z,50.69
2022-07-29T20:40:47.888Z,51.04
2022-07-29T20:43:15.893Z,50.77
2022-07-29T20:45:43.606Z,51.23
2022-07-29T20:48:11.575Z,51.31
2022-07-29T20:50:39.256Z,50.86
2022-07-29T20:53:06.919Z,51.11
2022-07-29T20:55:34.582Z,51.55
2022-07-29T20:58:02.310Z,51.60
2022-07-29T21:00:31.108Z,51.53
2022-07-29T21:02:58.786Z,51.54
2022-07-29T21:05:26.658Z,51.59
2022-07-29T21:07:58.000Z,51.47
2022-07-29T21:10:25.976Z,51.65
2022-07-29T21:12:53.631Z,52.09
2022-07-29T21:15:22.004Z,52.09
2022-07-29T21:17:52.042Z,52.04
2022-07-29T21:20:19.795Z,52.24
2022-07-29T21:22:47.511Z,52.04
2022-07-29T21:25:15.267Z,52.16
2022-07-29T21:28:01.493Z,52.38
2022-07-29T21:30:29.167Z,52.23
2022-07-29T21:32:56.921Z,52.61
2022-07-29T21:35:52.085Z,52.47
2022-07-29T21:38:12.666Z,52.45
2022-07-29T21:40:40.398Z,52.85
2022-07-29T21:43:08.059Z,52.67
2022-07-29T21:45:37.755Z,52.85
2022-07-29T21:48:06.514Z,52.83
2022-07-29T21:50:35.295Z,53.15
2022-07-29T21:53:03.002Z,53.08
2022-07-29T21:55:32.043Z,52.96
2022-07-29T21:58:00.202Z,53.17
2022-07-29T22:00:28.828Z,53.18
2022-07-29T22:02:57.247Z,53.16
2022-07-29T22:05:24.876Z,53.37
2022-07-29T22:07:56.375Z,53.55
2022-07-29T22:10:26.299Z,53.51
2022-07-29T22:12:56.602Z,53.52
2022-07-29T22:15:25.065Z,53.77
2022-07-29T22:17:53.144Z,53.99
2022-07-29T22:20:21.131Z,54.03
2022-07-29T22:22:48.854Z,54.16
2022-07-29T22:25:17.044Z,54.26
2022-07-29T22:27:45.119Z,53.88
2022-07-29T22:30:13.345Z,54.00
2022-07-29T22:32:41.418Z,54.07
2022-07-29T22:35:09.325Z,54.23
2022-07-29T22:37:37.107Z,54.47
2022-07-29T22:40:05.602Z,54.32
2022-07-29T22:42:34.570Z,54.47
2022-07-29T22:45:02.805Z,54.33
2022-07-29T22:47:46.301Z,54.50
2022-07-29T22:50:17.171Z,54.66
2022-07-29T22:52:46.343Z,55.02
2022-07-29T22:55:15.151Z,54.88
2022-07-29T22:57:42.917Z,54.82
2022-07-29T23:00:11.351Z,54.47
2022-07-29T23:02:40.296Z,54.46
2022-07-29T23:05:09.042Z,54.56
2022-07-29T23:07:36.834Z,54.68
2022-07-29T23:10:05.072Z,54.40
2022-07-29T23:12:32.733Z,54.60
2022-07-29T23:15:00.392Z,54.37
2022-07-29T23:17:28.591Z,54.36
2022-07-29T23:19:56.237Z,54.23
2022-07-29T23:22:23.896Z,54.18
2022-07-29T23:24:51.576Z,54.31
2022-07-29T23:27:19.448Z,54.62
2022-07-29T23:29:47.102Z,54.59
2022-07-29T23:32:14.822Z,54.51
2022-07-29T23:34:42.487Z,54.40
2022-07-29T23:37:10.163Z,54.41
2022-07-29T23:39:38.001Z,54.26
2022-07-29T23:42:05.669Z,54.47
2022-07-29T23:44:33.394Z,54.41
2022-07-29T23:47:01.231Z,54.72
2022-07-29T23:49:29.075Z,54.64
2022-07-29T23:51:57.103Z,54.43
2022-07-29T23:54:24.776Z,54.18
2022-07-29T23:56:52.439Z,54.49
2022-07-29T23:59:20.061Z,54.75
